Time;durP1;ratioP1;P1;durP2;ratioP2;P2;SDS_P1;SDS_P2;PMS_P1;PMS_P2;Temp;Humidity;BMP_temperature;BMP_pressure;BME280_temperature;BME280_humidity;BME280_pressure;Samples;Min_cycle;Max_cycle;Signal;HPM_P1;HPM_P2
2021/08/26 00:00:33;;;;;;;13.32;8.73;;;23.50;79.10;;;;;;1872500;77;21000;-54
2021/08/26 00:05:54;;;;;;;16.87;8.75;;;23.50;79.20;;;;;;1872522;77;21039;-55
2021/08/26 00:08:24;;;;;;;12.65;8.10;;;23.50;79.20;;;;;;1872455;76;21093;-55
2021/08/26 00:10:53;;;;;;;11.30;9.63;;;23.50;79.20;;;;;;1872508;77;21031;-54
2021/08/26 00:13:24;;;;;;;8.30;7.50;;;23.50;79.10;;;;;;1872616;77;21051;-55
2021/08/26 00:15:55;;;;;;;13.58;8.13;;;23.50;79.20;;;;;;1872583;76;21047;-54
2021/08/26 00:18:24;;;;;;;13.78;8.45;;;23.50;79.10;;;;;;1872417;77;21031;-54
2021/08/26 00:20:53;;;;;;;11.63;8.75;;;23.50;79.10;;;;;;1872472;77;21031;-54
2021/08/26 00:23:23;;;;;;;10.80;8.53;;;23.50;79.10;;;;;;1872460;77;21035;-54
2021/08/26 00:25:53;;;;;;;14.10;9.20;;;23.40;79.20;;;;;;1872452;77;21051;-54
2021/08/26 00:28:22;;;;;;;14.93;8.15;;;23.40;79.10;;;;;;1872429;77;21105;-54
2021/08/26 00:30:52;;;;;;;15.68;8.45;;;23.30;79.10;;;;;;1872401;77;21029;-54
2021/08/26 00:33:21;;;;;;;11.78;8.48;;;23.30;79.30;;;;;;1872466;77;21035;-54
2021/08/26 00:35:52;;;;;;;12.20;8.20;;;23.20;79.50;;;;;;1887327;76;21058;-54
2021/08/26 00:38:23;;;;;;;14.10;8.23;;;23.20;79.80;;;;;;1893968;74;21018;-55
2021/08/26 00:40:53;;;;;;;13.80;7.87;;;23.20;79.80;;;;;;1894028;75;21006;-54
2021/08/26 00:43:22;;;;;;;10.15;7.90;;;23.20;79.80;;;;;;1893985;74;21104;-54
2021/08/26 00:45:52;;;;;;;12.18;9.03;;;23.20;79.80;;;;;;1893906;76;21019;-54
2021/08/26 00:48:25;;;;;;;18.05;8.13;;;23.30;79.60;;;;;;1893892;75;21030;-54
2021/08/26 00:50:55;;;;;;;13.10;8.38;;;23.20;79.60;;;;;;1893989;76;21034;-54
2021/08/26 00:53:25;;;;;;;9.15;7.53;;;23.20;79.80;;;;;;1894001;74;21030;-54
2021/08/26 00:55:55;;;;;;;12.30;7.70;;;23.20;79.60;;;;;;1894021;76;21022;-55
2021/08/26 00:58:25;;;;;;;14.30;7.55;;;23.10;79.80;;;;;;1894031;76;21044;-54
2021/08/26 01:01:00;;;;;;;9.50;7.30;;;23.10;80.00;;;;;;1894102;75;21034;-54
2021/08/26 01:03:50;;;;;;;10.10;8.43;;;23.10;80.00;;;;;;1893980;74;21014;-54
2021/08/26 01:06:26;;;;;;;19.85;10.28;;;23.10;80.00;;;;;;1806944;78;21088;-54
2021/08/26 01:09:01;;;;;;;11.65;7.95;;;23.10;80.20;;;;;;1869946;75;21147;-55
2021/08/26 01:11:32;;;;;;;9.63;7.67;;;23.10;80.40;;;;;;1893576;75;21492;-54
2021/08/26 01:14:02;;;;;;;13.13;9.43;;;23.10;80.30;;;;;;1894118;75;21542;-54
2021/08/26 01:16:33;;;;;;;14.13;7.97;;;23.10;80.00;;;;;;1894043;75;21099;-54
2021/08/26 01:19:02;;;;;;;11.97;7.90;;;23.10;79.90;;;;;;1894030;75;21487;-54
2021/08/26 01:21:32;;;;;;;9.38;8.25;;;23.10;79.90;;;;;;1894015;76;20998;-54
2021/08/26 01:24:04;;;;;;;14.73;9.10;;;23.00;79.90;;;;;;1894023;76;21034;-54
2021/08/26 01:26:45;;;;;;;13.25;8.68;;;23.00;79.80;;;;;;1893962;76;21034;-55
2021/08/26 01:29:16;;;;;;;11.25;8.03;;;22.90;80.00;;;;;;1894057;76;21042;-54
2021/08/26 01:31:47;;;;;;;11.78;8.65;;;22.90;80.30;;;;;;1894064;76;21010;-54
2021/08/26 01:34:17;;;;;;;11.18;8.40;;;22.90;80.10;;;;;;1894021;76;21049;-54
2021/08/26 01:36:47;;;;;;;13.18;8.68;;;22.80;80.30;;;;;;1876104;75;21175;-54
2021/08/26 01:39:18;;;;;;;11.33;8.25;;;22.80;80.50;;;;;;1872586;77;21469;-54
2021/08/26 01:41:53;;;;;;;9.45;7.83;;;22.80;80.60;;;;;;1872639;75;21128;-54
2021/08/26 01:44:21;;;;;;;;;;;22.80;80.50;;;;;;1875261;76;21031;-54
2021/08/26 01:46:58;;;;;;;14.07;8.68;;;22.80;80.50;;;;;;1872578;77;20096;-54
2021/08/26 01:49:28;;;;;;;13.35;8.45;;;22.90;80.30;;;;;;1871987;75;21105;-54
2021/08/26 01:51:57;;;;;;;16.75;8.68;;;22.80;79.90;;;;;;1872581;77;21039;-55
2021/08/26 01:54:27;;;;;;;25.02;9.13;;;22.70;80.10;;;;;;1872481;77;21160;-54
2021/08/26 01:56:57;;;;;;;12.20;7.72;;;22.70;80.40;;;;;;1872423;77;21074;-54
2021/08/26 01:59:26;;;;;;;16.95;9.38;;;22.60;80.70;;;;;;1872460;76;21074;-54
2021/08/26 02:01:56;;;;;;;13.75;9.38;;;22.60;80.80;;;;;;1872472;77;21050;-54
2021/08/26 02:04:25;;;;;;;12.82;7.87;;;22.60;80.90;;;;;;1872587;77;21035;-54
2021/08/26 02:06:55;;;;;;;10.70;7.60;;;22.70;81.00;;;;;;1872582;77;21035;-54
2021/08/26 02:09:24;;;;;;;13.15;7.62;;;22.60;80.90;;;;;;1872508;77;21556;-54
2021/08/26 02:11:54;;;;;;;12.60;8.95;;;22.60;81.00;;;;;;1872645;77;21007;-54
2021/08/26 02:14:23;;;;;;;13.00;7.55;;;22.70;81.30;;;;;;1872581;77;21084;-54
2021/08/26 02:16:52;;;;;;;13.30;8.80;;;22.70;81.30;;;;;;1872626;77;21035;-54
2021/08/26 02:19:22;;;;;;;10.70;7.95;;;22.70;81.10;;;;;;1872559;77;21106;-54
2021/08/26 02:21:52;;;;;;;8.40;7.60;;;22.70;81.10;;;;;;1872541;77;20998;-54
2021/08/26 02:24:21;;;;;;;16.97;9.23;;;22.80;81.10;;;;;;1872573;77;21027;-54
2021/08/26 02:26:51;;;;;;;14.00;8.63;;;22.80;80.80;;;;;;1872483;75;21031;-54
2021/08/26 02:29:20;;;;;;;13.05;8.45;;;22.80;80.40;;;;;;1872448;76;21027;-55
2021/08/26 02:31:50;;;;;;;13.72;9.18;;;22.70;80.70;;;;;;1872428;77;21023;-54
2021/08/26 02:34:19;;;;;;;11.08;7.67;;;22.70;81.10;;;;;;1872471;75;21027;-54
2021/08/26 02:36:48;;;;;;;13.85;8.13;;;22.70;81.30;;;;;;1872565;76;21121;-54
2021/08/26 02:39:18;;;;;;;11.43;8.30;;;22.70;81.30;;;;;;1872600;77;21098;-54
2021/08/26 02:41:48;;;;;;;12.18;7.95;;;22.70;81.10;;;;;;1872821;77;21035;-54
2021/08/26 02:44:17;;;;;;;16.90;8.60;;;22.70;81.10;;;;;;1872546;77;21034;-54
2021/08/26 02:46:47;;;;;;;12.05;9.15;;;22.70;81.20;;;;;;1872355;76;21078;-54
2021/08/26 02:49:16;;;;;;;10.40;7.90;;;22.70;81.20;;;;;;1872442;77;21067;-54
2021/08/26 02:51:46;;;;;;;13.58;9.43;;;22.70;81.30;;;;;;1872536;75;21097;-54
2021/08/26 02:54:16;;;;;;;13.65;9.05;;;22.70;81.50;;;;;;1872554;77;21085;-54
2021/08/26 02:56:45;;;;;;;12.73;9.85;;;22.80;81.40;;;;;;1872434;77;21007;-54
2021/08/26 02:59:15;;;;;;;15.78;8.30;;;22.70;81.00;;;;;;1872510;77;21047;-54
2021/08/26 03:01:44;;;;;;;17.15;9.65;;;22.70;81.00;;;;;;1872453;77;21097;-53
2021/08/26 03:04:14;;;;;;;11.55;8.25;;;22.60;81.10;;;;;;1872454;77;21096;-54
2021/08/26 03:06:43;;;;;;;16.30;9.23;;;22.60;81.40;;;;;;1872400;77;21030;-54
2021/08/26 03:09:13;;;;;;;12.95;9.43;;;22.60;81.60;;;;;;1872411;77;21023;-54
2021/08/26 03:11:42;;;;;;;13.03;9.15;;;22.60;81.60;;;;;;1872385;77;21054;-54
2021/08/26 03:14:12;;;;;;;15.40;9.00;;;22.70;81.70;;;;;;1872443;75;21031;-54
2021/08/26 03:16:41;;;;;;;10.72;8.73;;;22.70;81.70;;;;;;1872435;76;21031;-54
2021/08/26 03:19:11;;;;;;;16.65;10.15;;;22.80;81.70;;;;;;1872440;77;21023;-54
2021/08/26 03:21:40;;;;;;;13.10;8.80;;;22.90;81.70;;;;;;1872509;77;21027;-54
2021/08/26 03:24:09;;;;;;;12.58;7.72;;;23.00;81.60;;;;;;1872440;77;21007;-54
2021/08/26 03:26:39;;;;;;;13.43;8.88;;;23.00;81.40;;;;;;1872535;77;21007;-54
2021/08/26 03:29:08;;;;;;;13.38;8.38;;;23.10;81.30;;;;;;1872444;75;21059;-54
2021/08/26 03:31:37;;;;;;;25.05;10.78;;;23.10;81.20;;;;;;1872457;76;21023;-54
2021/08/26 03:34:07;;;;;;;14.33;10.08;;;23.20;81.70;;;;;;1872494;77;21582;-54
2021/08/26 03:36:37;;;;;;;14.55;9.68;;;23.30;81.00;;;;;;1872299;76;21031;-55
2021/08/26 03:39:06;;;;;;;19.05;9.98;;;23.30;80.90;;;;;;1872712;77;21161;-54
2021/08/26 03:41:35;;;;;;;14.90;9.85;;;23.40;80.70;;;;;;1872592;77;21007;-55
2021/08/26 03:44:05;;;;;;;13.22;9.28;;;23.40;80.50;;;;;;1872503;77;21031;-54
2021/08/26 03:46:35;;;;;;;15.40;9.85;;;23.40;80.30;;;;;;1872419;77;21493;-54
2021/08/26 03:49:04;;;;;;;15.98;9.78;;;23.40;80.40;;;;;;1872488;75;21016;-54
2021/08/26 03:51:34;;;;;;;14.60;8.63;;;23.40;80.50;;;;;;1872378;77;21035;-54
2021/08/26 03:54:04;;;;;;;18.62;9.18;;;23.40;80.80;;;;;;1872405;77;21034;-54
2021/08/26 03:56:33;;;;;;;19.07;10.78;;;23.50;80.90;;;;;;1872386;77;21027;-54
2021/08/26 03:59:02;;;;;;;23.27;10.82;;;23.50;80.80;;;;;;1872512;77;21035;-54
2021/08/26 04:01:33;;;;;;;14.30;9.48;;;23.60;80.70;;;;;;1872388;77;21088;-54
2021/08/26 04:04:03;;;;;;;19.10;11.33;;;23.60;80.60;;;;;;1872508;75;21007;-54
2021/08/26 04:06:33;;;;;;;25.25;11.53;;;23.80;80.60;;;;;;1872357;77;21168;-54
2021/08/26 04:09:02;;;;;;;12.93;8.60;;;23.80;80.30;;;;;;1872510;76;21089;-54
2021/08/26 04:11:31;;;;;;;14.55;9.35;;;23.80;80.10;;;;;;1872385;77;21031;-55
2021/08/26 04:14:00;;;;;;;13.03;10.28;;;23.90;80.10;;;;;;1872494;77;21026;-55
2021/08/26 04:16:30;;;;;;;20.55;9.08;;;24.00;80.00;;;;;;1872445;77;21027;-54
2021/08/26 04:18:59;;;;;;;29.23;11.00;;;24.00;79.80;;;;;;1872297;77;21063;-55
2021/08/26 04:21:29;;;;;;;19.90;10.05;;;24.10;79.70;;;;;;1872316;77;21074;-54
2021/08/26 04:23:58;;;;;;;17.00;10.40;;;24.10;79.40;;;;;;1872466;75;21043;-54
2021/08/26 04:26:28;;;;;;;16.70;9.95;;;24.10;79.40;;;;;;1872289;77;21058;-54
2021/08/26 04:28:57;;;;;;;15.50;10.25;;;24.10;79.40;;;;;;1872395;76;21143;-54
2021/08/26 04:31:27;;;;;;;19.25;8.45;;;24.20;79.60;;;;;;1872400;77;21055;-54
2021/08/26 04:33:56;;;;;;;15.43;7.85;;;24.20;79.60;;;;;;1872402;77;21055;-54
2021/08/26 04:36:25;;;;;;;14.30;8.40;;;24.30;79.50;;;;;;1872317;77;21007;-54
2021/08/26 04:38:55;;;;;;;18.12;8.75;;;24.30;79.50;;;;;;1893332;76;21476;-54
2021/08/26 04:41:24;;;;;;;21.20;9.93;;;24.30;79.30;;;;;;1893922;74;21105;-54
2021/08/26 04:43:54;;;;;;;21.20;9.95;;;24.40;79.10;;;;;;1894118;76;21096;-54
2021/08/26 04:46:23;;;;;;;25.15;11.83;;;24.40;78.90;;;;;;1893852;74;21178;-55
2021/08/26 04:48:53;;;;;;;20.05;12.25;;;24.50;78.70;;;;;;1893919;76;21030;-54
2021/08/26 04:51:22;;;;;;;21.70;15.13;;;24.50;78.30;;;;;;1893900;76;21031;-54
2021/08/26 04:53:52;;;;;;;21.55;16.90;;;24.60;78.40;;;;;;1893990;76;21056;-54
2021/08/26 04:56:21;;;;;;;29.12;19.20;;;24.60;78.90;;;;;;1894007;74;21038;-55
2021/08/26 04:58:50;;;;;;;25.35;18.80;;;24.60;78.50;;;;;;1894048;76;21032;-54
2021/08/26 05:01:20;;;;;;;24.02;18.00;;;24.60;78.60;;;;;;1893841;76;21103;-54
2021/08/26 05:03:50;;;;;;;27.73;17.17;;;24.80;78.60;;;;;;1893790;76;21477;-56
2021/08/26 05:06:20;;;;;;;22.15;14.73;;;24.90;78.50;;;;;;1893985;74;20999;-54
2021/08/26 05:08:49;;;;;;;18.85;13.72;;;25.00;78.40;;;;;;1893937;76;21006;-54
2021/08/26 05:11:22;;;;;;;17.77;13.58;;;25.10;78.20;;;;;;1893839;76;21034;-55
2021/08/26 05:13:52;;;;;;;29.50;15.78;;;25.20;78.00;;;;;;1893919;75;21038;-54
2021/08/26 05:16:22;;;;;;;17.27;12.80;;;25.30;78.00;;;;;;1893885;76;21046;-54
2021/08/26 05:18:51;;;;;;;22.55;12.90;;;25.30;77.80;;;;;;1893897;76;21034;-55
2021/08/26 05:21:21;;;;;;;19.80;12.15;;;25.40;77.80;;;;;;1893897;76;21030;-55
2021/08/26 05:23:50;;;;;;;16.67;12.25;;;25.50;77.70;;;;;;1893951;76;21144;-54
2021/08/26 05:26:20;;;;;;;22.70;12.73;;;25.50;77.40;;;;;;1893909;74;21038;-54
2021/08/26 05:28:49;;;;;;;18.62;12.93;;;25.50;77.50;;;;;;1894074;76;21042;-54
2021/08/26 05:31:19;;;;;;;21.60;13.83;;;25.50;77.70;;;;;;1893827;76;21062;-54
2021/08/26 05:33:48;;;;;;;19.95;11.83;;;25.50;77.80;;;;;;1893925;76;21034;-54
2021/08/26 05:36:18;;;;;;;24.60;13.18;;;25.60;77.80;;;;;;1894020;76;21081;-54
2021/08/26 05:38:47;;;;;;;19.85;13.13;;;25.60;77.90;;;;;;1893919;76;21061;-54
2021/08/26 05:41:17;;;;;;;17.25;13.25;;;25.60;78.00;;;;;;1893897;76;21084;-54
2021/08/26 05:43:46;;;;;;;21.90;12.82;;;25.60;78.00;;;;;;1893849;76;21007;-54
2021/08/26 05:46:15;;;;;;;37.13;19.17;;;25.60;78.20;;;;;;1893924;76;21029;-55
2021/08/26 05:48:45;;;;;;;21.00;12.23;;;25.60;78.40;;;;;;1894036;76;21034;-54
2021/08/26 05:51:14;;;;;;;27.95;11.75;;;25.60;78.40;;;;;;1893990;76;21080;-55
2021/08/26 05:53:43;;;;;;;20.85;11.68;;;25.60;78.60;;;;;;1894124;76;21034;-55
2021/08/26 05:56:13;;;;;;;20.37;12.40;;;25.80;78.80;;;;;;1894139;76;21461;-54
2021/08/26 05:58:42;;;;;;;18.35;10.13;;;25.90;78.80;;;;;;1893973;75;21050;-55
2021/08/26 06:01:12;;;;;;;18.77;10.48;;;26.00;78.70;;;;;;1894068;76;21101;-55
2021/08/26 06:03:41;;;;;;;24.80;14.63;;;26.10;78.60;;;;;;1893822;76;21084;-54
2021/08/26 06:06:11;;;;;;;11.65;8.58;;;26.20;78.60;;;;;;1893724;74;21046;-55
2021/08/26 06:08:40;;;;;;;10.65;7.92;;;26.30;78.40;;;;;;1894021;76;21050;-55
2021/08/26 06:11:10;;;;;;;11.57;7.62;;;26.40;78.00;;;;;;1893702;74;21034;-54
2021/08/26 06:13:39;;;;;;;9.38;7.35;;;26.50;77.80;;;;;;1894055;76;21034;-55
2021/08/26 06:16:08;;;;;;;9.68;7.40;;;26.60;77.70;;;;;;1894152;76;21077;-54
2021/08/26 06:18:37;;;;;;;9.50;7.95;;;26.70;77.50;;;;;;1894029;74;21081;-55
2021/08/26 06:21:08;;;;;;;9.08;7.95;;;26.70;77.30;;;;;;1893797;76;21034;-55
2021/08/26 06:23:37;;;;;;;9.40;7.80;;;26.80;77.30;;;;;;1894003;76;21460;-55
2021/08/26 06:26:07;;;;;;;11.63;7.40;;;26.90;77.20;;;;;;1893881;76;21020;-55
2021/08/26 06:28:36;;;;;;;11.28;9.20;;;27.00;76.90;;;;;;1894180;76;21061;-55
2021/08/26 06:31:06;;;;;;;11.45;7.95;;;27.10;76.50;;;;;;1893971;76;21038;-55
2021/08/26 06:33:35;;;;;;;10.53;7.97;;;27.10;76.20;;;;;;1893962;76;21030;-55
2021/08/26 06:36:05;;;;;;;10.32;7.92;;;27.20;76.00;;;;;;1893962;76;21038;-55
2021/08/26 06:38:34;;;;;;;10.23;7.33;;;27.40;75.70;;;;;;1886110;76;21065;-55
2021/08/26 06:41:04;;;;;;;10.72;7.10;;;27.50;75.20;;;;;;1872397;77;21035;-55
2021/08/26 06:43:33;;;;;;;10.80;8.73;;;27.60;74.80;;;;;;1872439;76;21026;-55
2021/08/26 06:46:02;;;;;;;14.03;7.75;;;27.70;74.50;;;;;;1872592;77;21093;-55
2021/08/26 06:48:32;;;;;;;10.28;7.40;;;27.80;74.30;;;;;;1872555;77;21035;-55
2021/08/26 06:51:01;;;;;;;15.03;8.30;;;27.80;74.10;;;;;;1872383;77;21011;-55
2021/08/26 06:53:31;;;;;;;11.18;8.93;;;27.80;73.70;;;;;;1872539;76;21126;-55
2021/08/26 06:56:01;;;;;;;12.18;7.75;;;27.90;73.70;;;;;;1872450;75;21085;-54
2021/08/26 06:58:30;;;;;;;10.23;7.55;;;27.80;73.70;;;;;;1872418;76;21031;-55
2021/08/26 07:01:00;;;;;;;13.43;7.25;;;27.90;73.60;;;;;;1872477;75;21101;-55
2021/08/26 07:03:29;;;;;;;9.88;7.85;;;28.00;73.80;;;;;;1872455;75;21007;-55
2021/08/26 07:05:59;;;;;;;11.75;8.00;;;28.00;73.70;;;;;;1872510;77;21074;-55
2021/08/26 07:08:28;;;;;;;10.28;7.17;;;28.10;73.60;;;;;;1872516;77;21074;-55
2021/08/26 07:10:58;;;;;;;11.93;7.50;;;28.30;73.20;;;;;;1872530;75;21035;-55
2021/08/26 07:13:28;;;;;;;9.63;7.20;;;28.40;73.00;;;;;;1872437;77;21152;-55
2021/08/26 07:15:57;;;;;;;14.07;7.58;;;28.50;72.60;;;;;;1872445;77;21030;-55
2021/08/26 07:18:28;;;;;;;10.18;7.97;;;28.60;72.40;;;;;;1872542;76;21093;-55
2021/08/26 07:20:58;;;;;;;11.83;8.10;;;28.60;72.10;;;;;;1872601;75;21007;-55
2021/08/26 07:23:27;;;;;;;10.70;8.63;;;28.70;71.90;;;;;;1872523;77;21031;-55
2021/08/26 07:25:58;;;;;;;11.12;8.65;;;28.70;71.40;;;;;;1872451;75;21035;-55
2021/08/26 07:28:28;;;;;;;8.18;7.17;;;28.80;71.10;;;;;;1872457;76;21109;-51
2021/08/26 07:30:57;;;;;;;10.63;7.95;;;28.80;70.90;;;;;;1871407;77;21047;-55
2021/08/26 07:33:27;;;;;;;10.68;8.50;;;28.80;70.60;;;;;;1871150;77;21110;-55
2021/08/26 07:35:56;;;;;;;10.85;8.55;;;28.80;70.60;;;;;;1871431;77;21090;-55
2021/08/26 07:38:26;;;;;;;8.93;6.83;;;28.80;69.90;;;;;;1873975;75;21047;-55
2021/08/26 07:40:55;;;;;;;8.43;6.20;;;28.90;69.60;;;;;;1893977;75;21131;-55
2021/08/26 07:43:30;;;;;;;7.08;6.37;;;28.90;69.30;;;;;;1892481;74;21100;-55
2021/08/26 07:45:56;;;;;;;10.72;8.53;;;28.90;69.00;;;;;;1892677;75;21115;-55
2021/08/26 07:48:25;;;;;;;10.55;7.30;;;28.90;69.10;;;;;;1893516;76;21038;-55
2021/08/26 07:50:57;;;;;;;7.12;6.40;;;29.00;69.00;;;;;;1856938;77;21104;-55
2021/08/26 07:53:25;;;;;;;7.70;6.83;;;29.00;68.20;;;;;;1896211;75;21052;-56
2021/08/26 07:55:55;;;;;;;7.75;6.67;;;29.00;68.10;;;;;;1857098;77;21053;-55
2021/08/26 07:58:27;;;;;;;9.98;8.50;;;29.10;67.60;;;;;;1899670;75;21029;-55
2021/08/26 08:00:55;;;;;;;9.68;6.60;;;29.10;67.40;;;;;;1857612;76;21013;-55
2021/08/26 08:03:25;;;;;;;10.20;7.62;;;29.00;67.30;;;;;;1899714;75;21073;-55
2021/08/26 08:05:54;;;;;;;12.58;8.38;;;29.10;67.30;;;;;;1857748;77;21065;-55
2021/08/26 08:08:23;;;;;;;11.08;6.50;;;29.10;67.50;;;;;;1899203;75;21025;-55
2021/08/26 08:10:53;;;;;;;9.53;7.05;;;29.10;66.90;;;;;;1857750;76;21029;-55
2021/08/26 08:13:22;;;;;;;12.70;7.33;;;29.20;67.00;;;;;;1899649;75;21156;-55
2021/08/26 08:15:52;;;;;;;15.63;7.47;;;29.20;66.60;;;;;;1857271;77;21108;-55
2021/08/26 08:18:21;;;;;;;12.18;7.50;;;29.30;66.00;;;;;;1846306;77;21135;-54
2021/08/26 08:20:50;;;;;;;12.98;7.03;;;29.40;65.60;;;;;;1829197;77;21056;-55
2021/08/26 08:23:20;;;;;;;12.03;6.80;;;29.40;65.90;;;;;;1857735;77;21053;-55
2021/08/26 08:25:50;;;;;;;10.00;6.47;;;29.50;65.90;;;;;;1857823;76;21049;-55
2021/08/26 08:28:19;;;;;;;7.78;6.50;;;29.60;65.80;;;;;;1857788;77;21228;-54
2021/08/26 08:30:49;;;;;;;13.13;7.45;;;29.70;65.70;;;;;;1857835;77;21201;-55
2021/08/26 08:33:18;;;;;;;10.20;8.95;;;29.70;65.70;;;;;;1857622;77;21103;-54
2021/08/26 08:35:55;;;;;;;12.58;7.15;;;29.80;65.80;;;;;;1857141;76;21084;-55
2021/08/26 08:38:25;;;;;;;8.40;6.80;;;29.80;65.60;;;;;;1856732;76;21115;-54
2021/08/26 08:40:54;;;;;;;9.18;6.85;;;29.90;65.60;;;;;;1894186;75;21120;-54
2021/08/26 08:43:24;;;;;;;13.58;8.68;;;29.90;65.30;;;;;;1827414;78;21115;-54
2021/08/26 08:45:55;;;;;;;8.73;6.87;;;30.00;65.50;;;;;;1826950;77;21092;-53
2021/08/26 08:48:26;;;;;;;9.68;7.08;;;30.10;65.50;;;;;;1827593;78;21138;-54
2021/08/26 08:50:57;;;;;;;11.40;7.28;;;30.10;65.50;;;;;;1827494;77;21041;-54
2021/08/26 08:53:27;;;;;;;11.25;7.60;;;30.10;65.40;;;;;;1827516;78;21086;-52
2021/08/26 08:55:56;;;;;;;8.53;6.90;;;30.10;64.80;;;;;;1827581;78;21091;-54
2021/08/26 08:58:26;;;;;;;9.05;7.58;;;30.20;64.30;;;;;;1847913;77;21092;-54
2021/08/26 09:00:55;;;;;;;8.35;6.62;;;30.30;63.80;;;;;;1896881;76;21029;-54
2021/08/26 09:03:25;;;;;;;11.60;7.72;;;30.30;63.50;;;;;;1896824;76;21151;-54
2021/08/26 09:05:57;;;;;;;12.73;7.55;;;30.40;63.40;;;;;;1896387;76;21079;-53
2021/08/26 09:08:28;;;;;;;12.88;7.78;;;30.40;63.20;;;;;;1896473;74;21021;-54
2021/08/26 09:11:15;;;;;;;9.23;7.42;;;30.40;63.00;;;;;;1896535;74;21163;-54
2021/08/26 09:13:46;;;;;;;10.48;8.60;;;30.50;63.20;;;;;;1896153;75;21022;-52
2021/08/26 09:16:16;;;;;;;10.95;7.55;;;30.50;63.30;;;;;;1896378;76;21037;-53
2021/08/26 09:18:45;;;;;;;12.78;8.10;;;30.50;63.60;;;;;;1890883;76;20998;-54
2021/08/26 09:21:14;;;;;;;18.57;9.50;;;30.50;63.30;;;;;;1895950;76;21145;-53
2021/08/26 09:24:02;;;;;;;13.93;8.35;;;30.50;62.60;;;;;;1896301;75;21021;-53
2021/08/26 09:26:29;;;;;;;11.80;7.35;;;30.50;62.50;;;;;;1891983;75;21081;-54
2021/08/26 09:29:04;;;;;;;11.93;7.72;;;30.40;62.00;;;;;;1897308;74;21085;-54
2021/08/26 09:31:34;;;;;;;9.15;7.28;;;30.30;61.80;;;;;;1897496;75;21464;-54
2021/08/26 09:34:05;;;;;;;9.05;8.05;;;30.20;62.10;;;;;;1896885;75;21108;-54
2021/08/26 09:36:37;;;;;;;8.88;7.53;;;30.10;62.40;;;;;;1896961;76;21002;-52
2021/08/26 09:39:09;;;;;;;12.05;10.10;;;30.10;62.90;;;;;;1892199;76;21092;-49
2021/08/26 09:41:53;;;;;;;10.53;7.58;;;30.10;62.80;;;;;;1890269;75;21128;-46
2021/08/26 09:44:30;;;;;;;9.77;7.80;;;30.00;63.10;;;;;;1886625;76;21111;-50
2021/08/26 09:47:09;;;;;;;9.93;7.85;;;30.00;63.80;;;;;;1889630;76;21263;-50
2021/08/26 09:49:40;;;;;;;13.00;8.20;;;30.00;64.60;;;;;;1889786;76;21053;-46
2021/08/26 09:52:17;;;;;;;11.60;7.67;;;30.10;64.10;;;;;;1886809;76;21155;-47
2021/08/26 09:54:51;;;;;;;12.85;7.17;;;30.20;63.90;;;;;;1886328;76;21178;-49
2021/08/26 09:57:25;;;;;;;12.58;7.47;;;30.30;63.40;;;;;;1886334;76;21022;-51
2021/08/26 09:59:54;;;;;;;;;;;30.40;62.80;;;;;;1893169;76;21038;-50
2021/08/26 10:02:25;;;;;;;11.28;7.30;;;30.40;62.10;;;;;;1889726;76;20140;-49
2021/08/26 10:04:56;;;;;;;11.25;7.42;;;30.50;62.60;;;;;;1888819;75;21563;-50
2021/08/26 10:07:29;;;;;;;10.10;7.05;;;30.60;62.60;;;;;;1890047;76;21018;-50
2021/08/26 10:09:58;;;;;;;9.33;7.72;;;30.70;61.80;;;;;;1890303;76;21022;-48
2021/08/26 10:12:27;;;;;;;10.80;9.50;;;30.80;61.30;;;;;;1889899;76;21149;-50
2021/08/26 10:14:57;;;;;;;8.45;6.30;;;30.90;61.20;;;;;;1889363;76;21026;-49
2021/08/26 10:17:26;;;;;;;16.50;10.00;;;31.00;60.60;;;;;;1889809;75;20998;-50
2021/08/26 10:19:56;;;;;;;12.28;6.83;;;31.00;60.10;;;;;;1889984;76;21034;-51
2021/08/26 10:22:26;;;;;;;12.35;6.80;;;31.10;59.90;;;;;;1889735;76;21022;-50
2021/08/26 10:24:57;;;;;;;13.20;7.78;;;31.00;60.10;;;;;;1889546;75;21033;-50
2021/08/26 10:27:28;;;;;;;12.15;6.70;;;31.10;60.60;;;;;;1888580;75;21499;-51
2021/08/26 10:29:58;;;;;;;15.08;11.78;;;31.10;59.30;;;;;;1890093;76;21026;-48
2021/08/26 10:32:27;;;;;;;10.72;6.47;;;31.20;59.40;;;;;;1889864;76;21026;-50
2021/08/26 10:35:14;;;;;;;11.10;6.62;;;31.20;58.80;;;;;;1889311;75;21010;-50
2021/08/26 10:37:56;;;;;;;13.05;7.37;;;31.10;59.40;;;;;;1886441;76;21092;-51
2021/08/26 10:40:31;;;;;;;8.98;6.80;;;31.20;59.80;;;;;;1886816;75;21057;-49
2021/08/26 10:43:01;;;;;;;10.58;7.42;;;31.20;59.60;;;;;;1885996;76;21069;-50
2021/08/26 10:45:51;;;;;;;9.58;6.87;;;31.20;60.10;;;;;;1890033;75;21073;-51
2021/08/26 10:48:22;;;;;;;10.32;7.03;;;31.20;60.90;;;;;;1890011;74;21131;-51
2021/08/26 10:51:03;;;;;;;8.88;6.67;;;31.10;61.50;;;;;;1889947;76;21108;-51
2021/08/26 10:53:35;;;;;;;8.48;6.62;;;31.00;61.40;;;;;;1885752;76;21081;-49
2021/08/26 10:56:26;;;;;;;12.53;7.08;;;31.10;61.40;;;;;;1886521;76;21558;-48
2021/08/26 10:58:58;;;;;;;11.00;7.22;;;31.00;61.40;;;;;;1888367;76;21205;-47
2021/08/26 11:01:33;;;;;;;9.18;6.00;;;31.00;61.80;;;;;;1889833;76;21080;-50
2021/08/26 11:04:27;;;;;;;10.15;6.53;;;31.10;61.70;;;;;;1886240;76;21534;-47
2021/08/26 11:06:54;;;;;;;11.22;6.75;;;31.20;61.30;;;;;;1887938;76;21054;-48
2021/08/26 11:09:28;;;;;;;12.35;7.45;;;31.20;60.60;;;;;;1886377;76;21084;-50
2021/08/26 11:12:03;;;;;;;7.73;6.90;;;31.30;60.50;;;;;;1890420;76;21506;-50
2021/08/26 11:14:31;;;;;;;9.65;7.58;;;31.30;60.70;;;;;;1889476;76;21575;-50
2021/08/26 11:17:03;;;;;;;10.15;6.58;;;31.30;60.70;;;;;;1885312;75;21041;-46
2021/08/26 11:19:35;;;;;;;8.35;7.50;;;31.30;60.60;;;;;;1890155;75;21096;-49
2021/08/26 11:22:06;;;;;;;8.63;6.87;;;31.30;60.70;;;;;;1886437;76;21026;-50
2021/08/26 11:24:38;;;;;;;8.38;6.90;;;31.30;60.70;;;;;;1868113;76;21026;-51
2021/08/26 11:27:25;;;;;;;9.25;6.65;;;31.40;60.70;;;;;;1893928;75;21030;-54
2021/08/26 11:29:56;;;;;;;12.23;6.47;;;31.40;60.50;;;;;;1894032;75;21577;-55
2021/08/26 11:32:26;;;;;;;10.28;7.37;;;31.50;60.40;;;;;;1893992;75;21116;-56
2021/08/26 11:34:58;;;;;;;7.60;6.78;;;31.60;59.90;;;;;;1893905;76;21088;-57
2021/08/26 11:37:36;;;;;;;8.90;6.72;;;31.60;60.00;;;;;;1893935;76;21084;-57
2021/08/26 11:40:08;;;;;;;11.53;7.55;;;31.60;60.20;;;;;;1893693;76;21105;-57
2021/08/26 11:42:49;;;;;;;8.10;6.97;;;31.70;60.40;;;;;;1893610;76;21207;-57
2021/08/26 11:45:32;;;;;;;12.33;7.60;;;31.60;59.90;;;;;;1893364;76;21058;-57
2021/08/26 11:48:09;;;;;;;13.78;7.50;;;31.60;60.20;;;;;;1893951;76;21034;-57
2021/08/26 11:50:41;;;;;;;10.28;7.70;;;31.60;60.80;;;;;;1892454;76;21634;-57
2021/08/26 11:53:12;;;;;;;10.78;7.28;;;31.60;60.70;;;;;;1892112;75;21136;-57
2021/08/26 11:55:49;;;;;;;9.68;7.60;;;31.60;61.00;;;;;;1892837;76;21026;-57
2021/08/26 11:58:18;;;;;;;9.40;7.53;;;31.50;61.30;;;;;;1892417;75;21030;-57
2021/08/26 12:00:50;;;;;;;11.33;7.22;;;31.50;61.20;;;;;;1893927;74;21046;-57
2021/08/26 12:03:21;;;;;;;15.15;7.85;;;31.50;61.30;;;;;;1893758;76;21088;-57
2021/08/26 12:05:50;;;;;;;9.70;8.03;;;31.60;61.60;;;;;;1893743;76;21096;-57
2021/08/26 12:08:20;;;;;;;13.13;7.72;;;31.60;61.60;;;;;;1893993;76;21088;-57
2021/08/26 12:10:51;;;;;;;15.58;8.78;;;31.50;61.10;;;;;;1894030;76;21116;-57
2021/08/26 12:13:23;;;;;;;8.78;7.15;;;31.40;61.20;;;;;;1893940;74;21119;-57
2021/08/26 12:15:54;;;;;;;9.55;7.20;;;31.30;61.40;;;;;;1893450;75;21124;-57
2021/08/26 12:18:28;;;;;;;8.90;7.87;;;31.30;61.70;;;;;;1893980;76;21002;-57
2021/08/26 12:20:58;;;;;;;;;;;31.40;61.20;;;;;;1896769;76;21091;-57
2021/08/26 12:23:29;;;;;;;11.25;7.35;;;31.40;61.30;;;;;;1894024;76;20102;-57
2021/08/26 12:26:09;;;;;;;12.47;7.72;;;31.40;61.40;;;;;;1893795;76;21100;-57
2021/08/26 12:28:41;;;;;;;7.33;6.70;;;31.40;61.50;;;;;;1893889;76;21026;-57
2021/08/26 12:31:12;;;;;;;13.72;7.72;;;31.40;61.50;;;;;;1893042;74;21516;-57
2021/08/26 12:33:59;;;;;;;10.35;7.17;;;31.40;61.40;;;;;;1893940;75;21057;-57
2021/08/26 12:36:29;;;;;;;18.50;8.38;;;31.40;61.10;;;;;;1893353;74;21023;-57
2021/08/26 12:38:58;;;;;;;19.20;8.60;;;31.40;61.00;;;;;;1893841;76;21030;-57
2021/08/26 12:41:28;;;;;;;12.07;7.72;;;31.30;61.10;;;;;;1892255;76;21026;-57
2021/08/26 12:43:58;;;;;;;9.03;8.03;;;31.30;60.90;;;;;;1872522;77;21120;-57
2021/08/26 12:46:35;;;;;;;9.90;7.65;;;31.30;61.10;;;;;;1872536;75;21059;-58
2021/08/26 12:49:09;;;;;;;11.70;8.50;;;31.30;61.10;;;;;;1871730;76;21427;-57
2021/08/26 12:51:53;;;;;;;10.30;7.90;;;31.30;61.50;;;;;;1872424;76;21031;-57
2021/08/26 12:54:23;;;;;;;12.13;7.47;;;31.30;61.70;;;;;;1870903;76;21098;-57
2021/08/26 12:56:57;;;;;;;11.57;8.10;;;31.20;61.90;;;;;;1872294;77;21032;-57
2021/08/26 12:59:40;;;;;;;10.78;7.83;;;31.20;62.10;;;;;;1872580;77;21043;-57